Language selection

Features

My Weather Profile Weather Topics  | 

Atlantic - Newfoundland: Past 24 Hour Conditions

 

Banquereau - 44139

11:00 PM AST 12 November 2019Buoy position: 44.27N 57.08W
Disclaimer

This table is a summary of hourly weather conditions for the past 24 hours.
Please note that these observations might not always be representative of weather conditions over their associated marine area.

Date / Time
(AST)
Wind(knots) Wave height(m) Wave period(s) Pressure(kPa) Air tempC) Water tempC)
12 November 2019
23:00 S 17 gust 22 2.5 8.0 101.2 13 11
22:00 S 19 gust 23 2.6 8.0 101.3 13 11
21:00 S 19 gust 25 2.5 7.0 101.4 13 11
20:00 S 23 gust 27 2.6 7.0 101.5 14 11
19:00 SSW 22 gust 27 2.4 7.0 101.6 14 11
18:00 S 22 gust 25 2.2 6.0 101.7 14 11
17:00 SSW 16 gust 19 2.4 6.0 101.8 13 11
16:00 S 19 gust 23 2.5 6.0 101.8 13 11
15:00 S 22 gust 27 2.4 10.0 101.9 13 11
14:00 S 22 gust 23 2.3 6.0 102.0 13 11
13:00 S 19 gust 23 2.3 10.0 102.1 12 11
12:00 S 19 gust 22 2.1 9.0 102.2 13 11
11:00 S 19 gust 23 2.1 9.0 102.3 12 11
10:00 S 17 gust 22 2.1 9.0 102.4 12 11
9:00 S 17 gust 22 2.0 10.0 102.4 12 10
8:00 SSE 17 gust 22 2.1 10.0 102.5 12 10
7:00 SSE 13 gust 17 1.9 8.0 102.5 11 10
6:00 SSE 13 gust 16 2.0 10.0 102.6 11 10
5:00 SSE 12 gust 16 1.8 10.0 102.6 10 10
4:00 SE 10 gust 12 1.8 10.0 102.6 10 10
3:00 SE 8 gust 10 1.9 10.0 102.6 10 10
2:00 ESE 4 gust 6 1.9 9.0 102.7 10 10
1:00 calm 2.0 9.0 102.7 10 10
0:00 calm 2.1 10.0 102.7 10 10
11 November 2019
23:00 NW 2 gust 2 2.2 10.0 102.6 10 10

Zoom-in to make a selection

Map of Atlantic - Newfoundland marine weather areas Banquereau - 44139 Blanc-Sablon Airport Cap Whittle Chevery Natashquan Airport Heath Point Îles de la Madeleine Airport Miscou Island Eskasoni (First Nations) Grand Étang Ingonish Beach North Mountain St.Paul Island J.A. Douglas McCurdy Sydney Airport Charlottetown Airport East Point North Cape Argentia Bonavista Burgeo Cape Race Corner Brook Daniel's Harbour Englee Ferolle Point La Scie Port aux Basques Rocky Harbour Sagona Island St. Anthony Airport St. John's Int'l Airport St. Lawrence Stephenville Airport Twillingate Winterland Branch Hill Wreckhouse Grates Cove Pool's Island Marticot Island Long Pond Cartwright Airport Mary's Harbour
Legend:
buoy Buoy
land station Land Station

Atlantic - Newfoundland Area

Another Region

What we are doing

Date modified: